sensor_id;sensor_type;location;lat;lon;timestamp;temperature;humidity
10566;DHT22;5331;48.148;16.326;2023-08-08T00:02:20;14.50;1.00
10566;DHT22;5331;48.148;16.326;2023-08-08T00:04:48;14.50;1.00
10566;DHT22;5331;48.148;16.326;2023-08-08T00:07:15;14.50;1.00
10566;DHT22;5331;48.148;16.326;2023-08-08T00:09:42;14.50;1.00
10566;DHT22;5331;48.148;16.326;2023-08-08T00:12:09;14.60;1.00
10566;DHT22;5331;48.148;16.326;2023-08-08T00:14:36;14.50;1.00
10566;DHT22;5331;48.148;16.326;2023-08-08T00:17:03;14.50;1.00
10566;DHT22;5331;48.148;16.326;2023-08-08T00:19:30;14.50;1.00
10566;DHT22;5331;48.148;16.326;2023-08-08T00:21:58;14.50;1.00
10566;DHT22;5331;48.148;16.326;2023-08-08T00:24:25;14.50;1.00
10566;DHT22;5331;48.148;16.326;2023-08-08T00:26:52;14.50;1.00
10566;DHT22;5331;48.148;16.326;2023-08-08T00:29:19;14.50;1.00
10566;DHT22;5331;48.148;16.326;2023-08-08T00:31:45;14.50;1.00
10566;DHT22;5331;48.148;16.326;2023-08-08T00:34:12;14.50;1.00
10566;DHT22;5331;48.148;16.326;2023-08-08T00:36:39;14.50;1.00
10566;DHT22;5331;48.148;16.326;2023-08-08T00:39:07;14.50;1.00
10566;DHT22;5331;48.148;16.326;2023-08-08T00:41:35;14.40;1.00
10566;DHT22;5331;48.148;16.326;2023-08-08T00:44:02;14.50;1.00
10566;DHT22;5331;48.148;16.326;2023-08-08T00:46:29;14.50;1.00
10566;DHT22;5331;48.148;16.326;2023-08-08T00:48:56;14.50;1.00
10566;DHT22;5331;48.148;16.326;2023-08-08T00:51:24;14.40;1.00
10566;DHT22;5331;48.148;16.326;2023-08-08T00:53:51;14.40;1.00
10566;DHT22;5331;48.148;16.326;2023-08-08T00:56:20;14.40;1.00
10566;DHT22;5331;48.148;16.326;2023-08-08T00:58:47;14.30;1.00
10566;DHT22;5331;48.148;16.326;2023-08-08T01:01:17;14.30;1.00
10566;DHT22;5331;48.148;16.326;2023-08-08T01:03:44;14.30;1.00
10566;DHT22;5331;48.148;16.326;2023-08-08T01:06:26;14.30;1.00
10566;DHT22;5331;48.148;16.326;2023-08-08T01:08:58;14.30;1.00
10566;DHT22;5331;48.148;16.326;2023-08-08T01:11:29;14.20;1.00
10566;DHT22;5331;48.148;16.326;2023-08-08T01:13:58;14.10;1.00
10566;DHT22;5331;48.148;16.326;2023-08-08T01:16:26;14.10;1.00
10566;DHT22;5331;48.148;16.326;2023-08-08T01:18:54;14.10;1.00
10566;DHT22;5331;48.148;16.326;2023-08-08T01:21:23;14.20;1.00
10566;DHT22;5331;48.148;16.326;2023-08-08T01:23:53;14.20;1.00
10566;DHT22;5331;48.148;16.326;2023-08-08T01:26:24;14.40;1.00
10566;DHT22;5331;48.148;16.326;2023-08-08T01:28:53;14.30;1.00
10566;DHT22;5331;48.148;16.326;2023-08-08T01:31:20;14.40;1.00
10566;DHT22;5331;48.148;16.326;2023-08-08T01:33:47;14.40;1.00
10566;DHT22;5331;48.148;16.326;2023-08-08T01:36:20;14.40;1.00
10566;DHT22;5331;48.148;16.326;2023-08-08T01:38:48;14.40;1.00
10566;DHT22;5331;48.148;16.326;2023-08-08T01:41:18;14.40;1.00
10566;DHT22;5331;48.148;16.326;2023-08-08T01:43:48;14.50;1.00
10566;DHT22;5331;48.148;16.326;2023-08-08T01:46:15;14.40;1.00
10566;DHT22;5331;48.148;16.326;2023-08-08T01:48:45;14.40;1.00
10566;DHT22;5331;48.148;16.326;2023-08-08T01:51:12;14.40;1.00
10566;DHT22;5331;48.148;16.326;2023-08-08T01:53:39;14.40;1.00
10566;DHT22;5331;48.148;16.326;2023-08-08T01:56:06;14.30;1.00
10566;DHT22;5331;48.148;16.326;2023-08-08T01:58:34;14.30;1.00
10566;DHT22;5331;48.148;16.326;2023-08-08T02:01:02;14.20;1.00
10566;DHT22;5331;48.148;16.326;2023-08-08T02:03:29;14.20;1.00
10566;DHT22;5331;48.148;16.326;2023-08-08T02:05:56;14.20;1.00
10566;DHT22;5331;48.148;16.326;2023-08-08T02:08:22;14.10;1.00
10566;DHT22;5331;48.148;16.326;2023-08-08T02:10:49;14.00;1.00
10566;DHT22;5331;48.148;16.326;2023-08-08T02:13:16;14.00;1.00
10566;DHT22;5331;48.148;16.326;2023-08-08T02:15:43;13.90;1.00
10566;DHT22;5331;48.148;16.326;2023-08-08T02:18:11;13.90;1.00
10566;DHT22;5331;48.148;16.326;2023-08-08T02:20:38;13.80;1.00
10566;DHT22;5331;48.148;16.326;2023-08-08T02:23:05;13.80;1.00
10566;DHT22;5331;48.148;16.326;2023-08-08T02:25:32;13.80;1.00
10566;DHT22;5331;48.148;16.326;2023-08-08T02:27:59;13.80;1.00
10566;DHT22;5331;48.148;16.326;2023-08-08T02:30:25;13.70;1.00
10566;DHT22;5331;48.148;16.326;2023-08-08T02:32:52;13.70;1.00
10566;DHT22;5331;48.148;16.326;2023-08-08T02:35:20;13.70;1.00
10566;DHT22;5331;48.148;16.326;2023-08-08T02:37:47;13.70;1.00
10566;DHT22;5331;48.148;16.326;2023-08-08T02:40:14;13.70;1.00
10566;DHT22;5331;48.148;16.326;2023-08-08T02:42:41;13.70;1.00
10566;DHT22;5331;48.148;16.326;2023-08-08T02:45:08;13.70;1.00
10566;DHT22;5331;48.148;16.326;2023-08-08T02:47:35;13.70;1.00
10566;DHT22;5331;48.148;16.326;2023-08-08T02:50:02;13.60;1.00
10566;DHT22;5331;48.148;16.326;2023-08-08T02:52:30;13.70;1.00
10566;DHT22;5331;48.148;16.326;2023-08-08T02:54:57;13.60;1.00
10566;DHT22;5331;48.148;16.326;2023-08-08T02:57:24;13.60;1.00
10566;DHT22;5331;48.148;16.326;2023-08-08T02:59:51;13.70;1.00
10566;DHT22;5331;48.148;16.326;2023-08-08T03:02:18;13.70;1.00
10566;DHT22;5331;48.148;16.326;2023-08-08T03:04:44;13.60;1.00
10566;DHT22;5331;48.148;16.326;2023-08-08T03:07:11;13.60;1.00
10566;DHT22;5331;48.148;16.326;2023-08-08T03:09:39;13.50;1.00
10566;DHT22;5331;48.148;16.326;2023-08-08T03:12:07;13.40;1.00
10566;DHT22;5331;48.148;16.326;2023-08-08T03:14:34;13.40;1.00
10566;DHT22;5331;48.148;16.326;2023-08-08T03:17:01;13.40;1.00
10566;DHT22;5331;48.148;16.326;2023-08-08T03:19:28;13.40;1.00
10566;DHT22;5331;48.148;16.326;2023-08-08T03:21:55;13.40;1.00
10566;DHT22;5331;48.148;16.326;2023-08-08T03:24:22;13.30;1.00
10566;DHT22;5331;48.148;16.326;2023-08-08T03:26:50;13.20;1.00
10566;DHT22;5331;48.148;16.326;2023-08-08T03:29:17;13.20;1.00
10566;DHT22;5331;48.148;16.326;2023-08-08T03:31:43;13.10;1.00
10566;DHT22;5331;48.148;16.326;2023-08-08T03:34:10;13.10;1.00
10566;DHT22;5331;48.148;16.326;2023-08-08T03:36:37;13.10;1.00
10566;DHT22;5331;48.148;16.326;2023-08-08T03:39:04;13.00;1.00
10566;DHT22;5331;48.148;16.326;2023-08-08T03:41:33;13.00;1.00
10566;DHT22;5331;48.148;16.326;2023-08-08T03:44:01;13.00;1.00
10566;DHT22;5331;48.148;16.326;2023-08-08T03:46:29;13.00;1.00
10566;DHT22;5331;48.148;16.326;2023-08-08T03:48:56;12.90;1.00
10566;DHT22;5331;48.148;16.326;2023-08-08T03:51:23;12.90;1.00
10566;DHT22;5331;48.148;16.326;2023-08-08T03:53:49;12.80;1.00
10566;DHT22;5331;48.148;16.326;2023-08-08T03:56:16;12.90;1.00
10566;DHT22;5331;48.148;16.326;2023-08-08T03:58:43;12.80;1.00
10566;DHT22;5331;48.148;16.326;2023-08-08T04:01:11;12.80;1.00
10566;DHT22;5331;48.148;16.326;2023-08-08T04:03:38;12.80;1.00
10566;DHT22;5331;48.148;16.326;2023-08-08T04:06:05;12.80;1.00
10566;DHT22;5331;48.148;16.326;2023-08-08T04:08:32;12.80;1.00
10566;DHT22;5331;48.148;16.326;2023-08-08T04:10:59;12.90;1.00
10566;DHT22;5331;48.148;16.326;2023-08-08T04:13:25;13.00;1.00
10566;DHT22;5331;48.148;16.326;2023-08-08T04:15:52;13.20;1.00
10566;DHT22;5331;48.148;16.326;2023-08-08T04:18:21;13.30;1.00
10566;DHT22;5331;48.148;16.326;2023-08-08T04:20:47;13.40;1.00
10566;DHT22;5331;48.148;16.326;2023-08-08T04:23:14;13.50;1.00
10566;DHT22;5331;48.148;16.326;2023-08-08T04:25:41;13.60;1.00
10566;DHT22;5331;48.148;16.326;2023-08-08T04:28:08;13.70;1.00
10566;DHT22;5331;48.148;16.326;2023-08-08T04:30:35;13.70;1.00
10566;DHT22;5331;48.148;16.326;2023-08-08T04:33:02;13.80;1.00
10566;DHT22;5331;48.148;16.326;2023-08-08T04:35:30;13.80;1.00
10566;DHT22;5331;48.148;16.326;2023-08-08T04:37:57;13.90;1.00
10566;DHT22;5331;48.148;16.326;2023-08-08T04:40:23;13.90;1.00
10566;DHT22;5331;48.148;16.326;2023-08-08T04:42:51;14.00;1.00
10566;DHT22;5331;48.148;16.326;2023-08-08T04:45:18;14.10;1.00
10566;DHT22;5331;48.148;16.326;2023-08-08T04:47:46;14.10;1.00
10566;DHT22;5331;48.148;16.326;2023-08-08T04:50:13;14.20;1.00
10566;DHT22;5331;48.148;16.326;2023-08-08T04:52:41;14.20;1.00
10566;DHT22;5331;48.148;16.326;2023-08-08T04:55:09;14.30;1.00
10566;DHT22;5331;48.148;16.326;2023-08-08T04:57:36;14.30;1.00
10566;DHT22;5331;48.148;16.326;2023-08-08T05:00:03;14.30;1.00
10566;DHT22;5331;48.148;16.326;2023-08-08T05:02:33;14.30;1.00
10566;DHT22;5331;48.148;16.326;2023-08-08T05:05:00;14.40;1.00
10566;DHT22;5331;48.148;16.326;2023-08-08T05:07:27;14.50;1.00
10566;DHT22;5331;48.148;16.326;2023-08-08T05:09:55;14.50;1.00
10566;DHT22;5331;48.148;16.326;2023-08-08T05:12:22;14.60;1.00
10566;DHT22;5331;48.148;16.326;2023-08-08T05:14:49;14.70;1.00
10566;DHT22;5331;48.148;16.326;2023-08-08T05:17:16;14.80;1.00
10566;DHT22;5331;48.148;16.326;2023-08-08T05:19:43;15.00;1.00
10566;DHT22;5331;48.148;16.326;2023-08-08T05:22:10;15.20;1.00
10566;DHT22;5331;48.148;16.326;2023-08-08T05:24:36;15.40;1.00
10566;DHT22;5331;48.148;16.326;2023-08-08T05:27:05;15.40;1.00
10566;DHT22;5331;48.148;16.326;2023-08-08T05:29:32;15.60;1.00
10566;DHT22;5331;48.148;16.326;2023-08-08T05:31:59;15.70;1.00
10566;DHT22;5331;48.148;16.326;2023-08-08T05:34:26;15.90;1.00
10566;DHT22;5331;48.148;16.326;2023-08-08T05:36:53;16.20;1.00
10566;DHT22;5331;48.148;16.326;2023-08-08T05:39:20;16.40;1.00
10566;DHT22;5331;48.148;16.326;2023-08-08T05:41:47;16.60;1.00
10566;DHT22;5331;48.148;16.326;2023-08-08T05:44:15;16.80;1.00
10566;DHT22;5331;48.148;16.326;2023-08-08T05:46:42;16.90;1.00
10566;DHT22;5331;48.148;16.326;2023-08-08T05:49:08;17.00;1.00
10566;DHT22;5331;48.148;16.326;2023-08-08T05:51:35;17.10;1.00
10566;DHT22;5331;48.148;16.326;2023-08-08T05:54:02;17.00;1.00
10566;DHT22;5331;48.148;16.326;2023-08-08T05:56:34;17.00;1.00
10566;DHT22;5331;48.148;16.326;2023-08-08T05:59:02;17.00;1.00
10566;DHT22;5331;48.148;16.326;2023-08-08T06:01:31;17.10;1.00
10566;DHT22;5331;48.148;16.326;2023-08-08T06:03:58;17.10;1.00
10566;DHT22;5331;48.148;16.326;2023-08-08T06:06:25;17.30;1.00
10566;DHT22;5331;48.148;16.326;2023-08-08T06:08:52;17.60;1.00
10566;DHT22;5331;48.148;16.326;2023-08-08T06:11:19;18.00;1.00
10566;DHT22;5331;48.148;16.326;2023-08-08T06:13:46;18.50;1.00
10566;DHT22;5331;48.148;16.326;2023-08-08T06:16:13;18.80;1.00
10566;DHT22;5331;48.148;16.326;2023-08-08T06:18:42;19.20;1.00
10566;DHT22;5331;48.148;16.326;2023-08-08T06:21:09;19.30;1.00
10566;DHT22;5331;48.148;16.326;2023-08-08T06:23:36;19.60;1.00
10566;DHT22;5331;48.148;16.326;2023-08-08T06:26:03;19.80;1.00
10566;DHT22;5331;48.148;16.326;2023-08-08T06:28:30;20.20;1.00
10566;DHT22;5331;48.148;16.326;2023-08-08T06:30:57;20.50;1.00
10566;DHT22;5331;48.148;16.326;2023-08-08T06:33:24;20.90;1.00
10566;DHT22;5331;48.148;16.326;2023-08-08T06:35:52;21.10;1.00
10566;DHT22;5331;48.148;16.326;2023-08-08T06:38:19;21.50;1.00
10566;DHT22;5331;48.148;16.326;2023-08-08T06:40:46;21.10;1.00
10566;DHT22;5331;48.148;16.326;2023-08-08T06:43:13;20.80;1.00
10566;DHT22;5331;48.148;16.326;2023-08-08T06:45:40;20.50;1.00
10566;DHT22;5331;48.148;16.326;2023-08-08T06:48:06;20.20;1.00
10566;DHT22;5331;48.148;16.326;2023-08-08T06:50:34;20.20;1.00
10566;DHT22;5331;48.148;16.326;2023-08-08T06:53:02;20.30;1.00
10566;DHT22;5331;48.148;16.326;2023-08-08T06:55:30;20.30;1.00
10566;DHT22;5331;48.148;16.326;2023-08-08T06:57:56;20.20;1.00
10566;DHT22;5331;48.148;16.326;2023-08-08T07:00:23;20.60;1.00
10566;DHT22;5331;48.148;16.326;2023-08-08T07:02:52;21.10;1.00
10566;DHT22;5331;48.148;16.326;2023-08-08T07:05:19;21.50;1.00
10566;DHT22;5331;48.148;16.326;2023-08-08T07:07:48;21.40;1.00
10566;DHT22;5331;48.148;16.326;2023-08-08T07:10:16;21.30;1.00
10566;DHT22;5331;48.148;16.326;2023-08-08T07:12:43;21.40;1.00
10566;DHT22;5331;48.148;16.326;2023-08-08T07:15:11;21.30;1.00
10566;DHT22;5331;48.148;16.326;2023-08-08T07:17:38;21.20;1.00
10566;DHT22;5331;48.148;16.326;2023-08-08T07:20:06;21.20;1.00
10566;DHT22;5331;48.148;16.326;2023-08-08T07:22:33;21.20;1.00
10566;DHT22;5331;48.148;16.326;2023-08-08T07:25:01;21.40;1.00
10566;DHT22;5331;48.148;16.326;2023-08-08T07:27:29;21.60;1.00
10566;DHT22;5331;48.148;16.326;2023-08-08T07:29:56;21.60;1.00
10566;DHT22;5331;48.148;16.326;2023-08-08T07:32:24;21.60;1.00
10566;DHT22;5331;48.148;16.326;2023-08-08T07:34:51;21.50;1.00
10566;DHT22;5331;48.148;16.326;2023-08-08T07:37:18;21.40;1.00
10566;DHT22;5331;48.148;16.326;2023-08-08T07:39:45;21.40;1.00
10566;DHT22;5331;48.148;16.326;2023-08-08T07:42:11;21.70;1.00
10566;DHT22;5331;48.148;16.326;2023-08-08T07:44:40;22.10;1.00
10566;DHT22;5331;48.148;16.326;2023-08-08T07:47:06;22.20;1.00
10566;DHT22;5331;48.148;16.326;2023-08-08T07:49:33;22.00;1.00
10566;DHT22;5331;48.148;16.326;2023-08-08T07:52:00;21.80;1.00
10566;DHT22;5331;48.148;16.326;2023-08-08T07:54:27;21.60;1.00
10566;DHT22;5331;48.148;16.326;2023-08-08T07:56:54;21.60;1.00
10566;DHT22;5331;48.148;16.326;2023-08-08T07:59:21;21.80;1.00
10566;DHT22;5331;48.148;16.326;2023-08-08T08:01:50;22.00;1.00
10566;DHT22;5331;48.148;16.326;2023-08-08T08:04:17;22.10;1.00
10566;DHT22;5331;48.148;16.326;2023-08-08T08:06:44;22.20;1.00
10566;DHT22;5331;48.148;16.326;2023-08-08T08:09:11;22.00;1.00
10566;DHT22;5331;48.148;16.326;2023-08-08T08:11:38;21.80;1.00
10566;DHT22;5331;48.148;16.326;2023-08-08T08:14:05;22.00;1.00
10566;DHT22;5331;48.148;16.326;2023-08-08T08:16:32;21.90;1.00
10566;DHT22;5331;48.148;16.326;2023-08-08T08:19:00;21.70;1.00
10566;DHT22;5331;48.148;16.326;2023-08-08T08:21:27;21.60;1.00
10566;DHT22;5331;48.148;16.326;2023-08-08T08:23:53;21.40;1.00
10566;DHT22;5331;48.148;16.326;2023-08-08T08:26:20;21.30;1.00
10566;DHT22;5331;48.148;16.326;2023-08-08T08:28:48;21.30;1.00
10566;DHT22;5331;48.148;16.326;2023-08-08T08:31:14;21.10;1.00
10566;DHT22;5331;48.148;16.326;2023-08-08T08:33:41;21.00;1.00
10566;DHT22;5331;48.148;16.326;2023-08-08T08:36:10;20.90;1.00
10566;DHT22;5331;48.148;16.326;2023-08-08T08:38:37;20.80;1.00
10566;DHT22;5331;48.148;16.326;2023-08-08T08:41:04;20.60;1.00
10566;DHT22;5331;48.148;16.326;2023-08-08T08:43:31;20.30;1.00
10566;DHT22;5331;48.148;16.326;2023-08-08T08:46:00;20.20;1.00
10566;DHT22;5331;48.148;16.326;2023-08-08T08:48:28;20.00;1.00
10566;DHT22;5331;48.148;16.326;2023-08-08T08:50:55;19.90;1.00
10566;DHT22;5331;48.148;16.326;2023-08-08T08:53:24;19.70;1.00
10566;DHT22;5331;48.148;16.326;2023-08-08T08:55:51;19.60;1.00
10566;DHT22;5331;48.148;16.326;2023-08-08T08:58:19;19.70;1.00
10566;DHT22;5331;48.148;16.326;2023-08-08T09:00:47;19.70;1.00
10566;DHT22;5331;48.148;16.326;2023-08-08T09:03:15;19.80;1.00
10566;DHT22;5331;48.148;16.326;2023-08-08T09:05:42;19.90;1.00
10566;DHT22;5331;48.148;16.326;2023-08-08T09:08:10;19.90;1.00
10566;DHT22;5331;48.148;16.326;2023-08-08T09:10:39;20.00;1.00
10566;DHT22;5331;48.148;16.326;2023-08-08T09:13:06;20.20;1.00
10566;DHT22;5331;48.148;16.326;2023-08-08T09:15:33;20.40;1.00
10566;DHT22;5331;48.148;16.326;2023-08-08T09:18:01;20.50;1.00
10566;DHT22;5331;48.148;16.326;2023-08-08T09:20:28;20.70;1.00
10566;DHT22;5331;48.148;16.326;2023-08-08T09:22:55;21.00;1.00
10566;DHT22;5331;48.148;16.326;2023-08-08T09:25:22;21.10;1.00
10566;DHT22;5331;48.148;16.326;2023-08-08T09:27:50;21.40;1.00
10566;DHT22;5331;48.148;16.326;2023-08-08T09:30:17;21.90;1.00
10566;DHT22;5331;48.148;16.326;2023-08-08T09:32:44;22.10;1.00
10566;DHT22;5331;48.148;16.326;2023-08-08T09:35:12;22.30;1.00
10566;DHT22;5331;48.148;16.326;2023-08-08T09:37:39;22.30;1.00
10566;DHT22;5331;48.148;16.326;2023-08-08T09:40:06;22.40;1.00
10566;DHT22;5331;48.148;16.326;2023-08-08T09:42:36;22.40;1.00
10566;DHT22;5331;48.148;16.326;2023-08-08T09:45:06;22.50;1.00
10566;DHT22;5331;48.148;16.326;2023-08-08T09:47:35;22.70;1.00
10566;DHT22;5331;48.148;16.326;2023-08-08T09:50:02;23.00;1.00
10566;DHT22;5331;48.148;16.326;2023-08-08T09:52:30;23.10;1.00
10566;DHT22;5331;48.148;16.326;2023-08-08T09:54:58;23.10;1.00
10566;DHT22;5331;48.148;16.326;2023-08-08T09:57:25;23.00;1.00
10566;DHT22;5331;48.148;16.326;2023-08-08T09:59:52;22.60;1.00
10566;DHT22;5331;48.148;16.326;2023-08-08T10:02:21;22.50;1.00
10566;DHT22;5331;48.148;16.326;2023-08-08T10:04:48;22.80;1.00
10566;DHT22;5331;48.148;16.326;2023-08-08T10:07:15;22.80;1.00
10566;DHT22;5331;48.148;16.326;2023-08-08T10:09:42;23.10;1.00
10566;DHT22;5331;48.148;16.326;2023-08-08T10:12:10;23.40;1.00
10566;DHT22;5331;48.148;16.326;2023-08-08T10:14:41;23.50;1.00
10566;DHT22;5331;48.148;16.326;2023-08-08T10:17:08;23.50;1.00
10566;DHT22;5331;48.148;16.326;2023-08-08T10:19:50;23.80;1.00
10566;DHT22;5331;48.148;16.326;2023-08-08T10:22:20;23.90;1.00
10566;DHT22;5331;48.148;16.326;2023-08-08T10:24:50;24.00;1.00
10566;DHT22;5331;48.148;16.326;2023-08-08T10:27:27;24.20;1.00
10566;DHT22;5331;48.148;16.326;2023-08-08T10:30:01;24.50;1.00
10566;DHT22;5331;48.148;16.326;2023-08-08T10:32:28;24.60;1.00
10566;DHT22;5331;48.148;16.326;2023-08-08T10:34:56;24.70;1.00
10566;DHT22;5331;48.148;16.326;2023-08-08T10:37:26;25.00;1.00
10566;DHT22;5331;48.148;16.326;2023-08-08T10:39:53;24.80;1.00
10566;DHT22;5331;48.148;16.326;2023-08-08T10:42:24;24.70;1.00
10566;DHT22;5331;48.148;16.326;2023-08-08T10:44:51;24.70;1.00
10566;DHT22;5331;48.148;16.326;2023-08-08T10:47:22;24.70;1.00
10566;DHT22;5331;48.148;16.326;2023-08-08T10:49:58;24.80;1.00
10566;DHT22;5331;48.148;16.326;2023-08-08T10:52:25;24.80;1.00
10566;DHT22;5331;48.148;16.326;2023-08-08T10:54:53;24.70;1.00
10566;DHT22;5331;48.148;16.326;2023-08-08T10:57:23;24.70;1.00
10566;DHT22;5331;48.148;16.326;2023-08-08T10:59:51;24.70;1.00
10566;DHT22;5331;48.148;16.326;2023-08-08T11:02:19;24.70;1.00
10566;DHT22;5331;48.148;16.326;2023-08-08T11:04:46;25.10;1.00
10566;DHT22;5331;48.148;16.326;2023-08-08T11:07:15;25.10;1.00
10566;DHT22;5331;48.148;16.326;2023-08-08T11:09:43;25.10;1.00
10566;DHT22;5331;48.148;16.326;2023-08-08T11:12:13;25.00;1.00
10566;DHT22;5331;48.148;16.326;2023-08-08T11:14:41;25.10;1.00
10566;DHT22;5331;48.148;16.326;2023-08-08T11:17:10;25.30;1.00
10566;DHT22;5331;48.148;16.326;2023-08-08T11:19:41;25.30;1.00
10566;DHT22;5331;48.148;16.326;2023-08-08T11:22:11;25.00;1.00
10566;DHT22;5331;48.148;16.326;2023-08-08T11:24:39;25.10;1.00
10566;DHT22;5331;48.148;16.326;2023-08-08T11:27:06;25.30;1.00
10566;DHT22;5331;48.148;16.326;2023-08-08T11:29:34;25.60;1.00
10566;DHT22;5331;48.148;16.326;2023-08-08T11:32:01;25.60;1.00
10566;DHT22;5331;48.148;16.326;2023-08-08T11:34:30;25.80;1.00
10566;DHT22;5331;48.148;16.326;2023-08-08T11:36:59;25.80;1.00
10566;DHT22;5331;48.148;16.326;2023-08-08T11:39:26;25.90;1.00
10566;DHT22;5331;48.148;16.326;2023-08-08T11:41:55;25.70;1.00
10566;DHT22;5331;48.148;16.326;2023-08-08T11:44:22;25.40;1.00
10566;DHT22;5331;48.148;16.326;2023-08-08T11:46:49;25.40;1.00
10566;DHT22;5331;48.148;16.326;2023-08-08T11:49:16;25.60;1.00
10566;DHT22;5331;48.148;16.326;2023-08-08T11:51:44;25.40;1.00
10566;DHT22;5331;48.148;16.326;2023-08-08T11:54:11;25.50;1.00
10566;DHT22;5331;48.148;16.326;2023-08-08T11:56:38;25.60;1.00
10566;DHT22;5331;48.148;16.326;2023-08-08T11:59:07;25.80;1.00
10566;DHT22;5331;48.148;16.326;2023-08-08T12:01:35;25.90;1.00
10566;DHT22;5331;48.148;16.326;2023-08-08T12:04:07;26.20;1.00
10566;DHT22;5331;48.148;16.326;2023-08-08T12:06:37;25.90;1.00
10566;DHT22;5331;48.148;16.326;2023-08-08T12:09:04;25.80;1.00
10566;DHT22;5331;48.148;16.326;2023-08-08T12:11:34;26.00;1.00
10566;DHT22;5331;48.148;16.326;2023-08-08T12:14:02;26.10;1.00
10566;DHT22;5331;48.148;16.326;2023-08-08T12:16:30;26.30;1.00
10566;DHT22;5331;48.148;16.326;2023-08-08T12:18:59;26.10;1.00
10566;DHT22;5331;48.148;16.326;2023-08-08T12:21:27;26.00;1.00
10566;DHT22;5331;48.148;16.326;2023-08-08T12:23:53;26.10;1.00
10566;DHT22;5331;48.148;16.326;2023-08-08T12:26:20;26.10;1.00
10566;DHT22;5331;48.148;16.326;2023-08-08T12:28:47;26.20;1.00
10566;DHT22;5331;48.148;16.326;2023-08-08T12:31:16;26.30;1.00
10566;DHT22;5331;48.148;16.326;2023-08-08T12:33:44;26.30;1.00
10566;DHT22;5331;48.148;16.326;2023-08-08T12:36:12;26.40;1.00
10566;DHT22;5331;48.148;16.326;2023-08-08T12:38:39;26.30;1.00
10566;DHT22;5331;48.148;16.326;2023-08-08T12:41:06;26.30;1.00
10566;DHT22;5331;48.148;16.326;2023-08-08T12:43:33;26.00;1.00
10566;DHT22;5331;48.148;16.326;2023-08-08T12:46:00;25.90;1.00
10566;DHT22;5331;48.148;16.326;2023-08-08T12:48:26;26.00;1.00
10566;DHT22;5331;48.148;16.326;2023-08-08T12:50:55;26.10;1.00
10566;DHT22;5331;48.148;16.326;2023-08-08T12:53:22;26.10;1.00
10566;DHT22;5331;48.148;16.326;2023-08-08T12:55:48;26.10;1.00
10566;DHT22;5331;48.148;16.326;2023-08-08T12:58:17;26.00;1.00
10566;DHT22;5331;48.148;16.326;2023-08-08T13:00:44;25.90;1.00
10566;DHT22;5331;48.148;16.326;2023-08-08T13:03:11;25.70;1.00
10566;DHT22;5331;48.148;16.326;2023-08-08T13:05:38;25.70;1.00
10566;DHT22;5331;48.148;16.326;2023-08-08T13:08:07;25.90;1.00
10566;DHT22;5331;48.148;16.326;2023-08-08T13:10:35;26.00;1.00
10566;DHT22;5331;48.148;16.326;2023-08-08T13:13:03;25.90;1.00
10566;DHT22;5331;48.148;16.326;2023-08-08T13:15:30;25.60;1.00
10566;DHT22;5331;48.148;16.326;2023-08-08T13:17:57;25.60;1.00
10566;DHT22;5331;48.148;16.326;2023-08-08T13:20:25;25.60;1.00
10566;DHT22;5331;48.148;16.326;2023-08-08T13:22:52;25.70;1.00
10566;DHT22;5331;48.148;16.326;2023-08-08T13:25:21;25.70;1.00
10566;DHT22;5331;48.148;16.326;2023-08-08T13:27:48;25.80;1.00
10566;DHT22;5331;48.148;16.326;2023-08-08T13:30:14;25.80;1.00
10566;DHT22;5331;48.148;16.326;2023-08-08T13:32:42;25.70;1.00
10566;DHT22;5331;48.148;16.326;2023-08-08T13:35:09;25.60;1.00
10566;DHT22;5331;48.148;16.326;2023-08-08T13:37:35;25.50;1.00
10566;DHT22;5331;48.148;16.326;2023-08-08T13:40:03;25.40;1.00
10566;DHT22;5331;48.148;16.326;2023-08-08T13:42:31;25.30;1.00
10566;DHT22;5331;48.148;16.326;2023-08-08T13:44:58;25.10;1.00
10566;DHT22;5331;48.148;16.326;2023-08-08T13:47:25;25.10;1.00
10566;DHT22;5331;48.148;16.326;2023-08-08T13:49:52;25.20;1.00
10566;DHT22;5331;48.148;16.326;2023-08-08T13:52:19;25.40;1.00
10566;DHT22;5331;48.148;16.326;2023-08-08T13:57:13;25.70;1.00
10566;DHT22;5331;48.148;16.326;2023-08-08T13:59:41;25.80;1.00
10566;DHT22;5331;48.148;16.326;2023-08-08T14:02:08;25.80;1.00
10566;DHT22;5331;48.148;16.326;2023-08-08T14:04:34;25.80;1.00
10566;DHT22;5331;48.148;16.326;2023-08-08T14:07:01;25.90;1.00
10566;DHT22;5331;48.148;16.326;2023-08-08T14:09:28;25.60;1.00
10566;DHT22;5331;48.148;16.326;2023-08-08T14:11:55;25.70;1.00
10566;DHT22;5331;48.148;16.326;2023-08-08T14:14:22;25.60;1.00
10566;DHT22;5331;48.148;16.326;2023-08-08T14:16:50;25.70;1.00
10566;DHT22;5331;48.148;16.326;2023-08-08T14:19:17;25.80;1.00
10566;DHT22;5331;48.148;16.326;2023-08-08T14:21:44;26.00;1.00
10566;DHT22;5331;48.148;16.326;2023-08-08T14:24:11;26.10;1.00
10566;DHT22;5331;48.148;16.326;2023-08-08T14:26:38;26.10;1.00
10566;DHT22;5331;48.148;16.326;2023-08-08T14:29:05;25.80;1.00
10566;DHT22;5331;48.148;16.326;2023-08-08T14:31:32;25.50;1.00
10566;DHT22;5331;48.148;16.326;2023-08-08T14:34:00;25.40;1.00
10566;DHT22;5331;48.148;16.326;2023-08-08T14:36:27;25.30;1.00
10566;DHT22;5331;48.148;16.326;2023-08-08T14:38:54;25.50;1.00
10566;DHT22;5331;48.148;16.326;2023-08-08T14:41:21;25.60;1.00
10566;DHT22;5331;48.148;16.326;2023-08-08T14:43:48;25.70;1.00
10566;DHT22;5331;48.148;16.326;2023-08-08T14:46:15;25.90;1.00
10566;DHT22;5331;48.148;16.326;2023-08-08T14:48:41;26.00;1.00
10566;DHT22;5331;48.148;16.326;2023-08-08T14:51:10;26.10;1.00
10566;DHT22;5331;48.148;16.326;2023-08-08T14:53:38;26.00;1.00
10566;DHT22;5331;48.148;16.326;2023-08-08T14:56:05;26.00;1.00
10566;DHT22;5331;48.148;16.326;2023-08-08T14:58:32;25.90;1.00
10566;DHT22;5331;48.148;16.326;2023-08-08T15:01:00;25.60;1.00
10566;DHT22;5331;48.148;16.326;2023-08-08T15:03:27;25.40;1.00
10566;DHT22;5331;48.148;16.326;2023-08-08T15:05:54;25.10;1.00
10566;DHT22;5331;48.148;16.326;2023-08-08T15:08:23;24.90;1.00
10566;DHT22;5331;48.148;16.326;2023-08-08T15:10:50;24.80;1.00
10566;DHT22;5331;48.148;16.326;2023-08-08T15:13:17;24.70;1.00
10566;DHT22;5331;48.148;16.326;2023-08-08T15:15:44;24.60;1.00
10566;DHT22;5331;48.148;16.326;2023-08-08T15:18:11;24.70;1.00
10566;DHT22;5331;48.148;16.326;2023-08-08T15:20:38;24.60;1.00
10566;DHT22;5331;48.148;16.326;2023-08-08T15:23:05;24.50;1.00
10566;DHT22;5331;48.148;16.326;2023-08-08T15:25:34;24.60;1.00
10566;DHT22;5331;48.148;16.326;2023-08-08T15:28:01;24.50;1.00
10566;DHT22;5331;48.148;16.326;2023-08-08T15:30:29;24.50;1.00
10566;DHT22;5331;48.148;16.326;2023-08-08T15:32:56;24.50;1.00
10566;DHT22;5331;48.148;16.326;2023-08-08T15:35:23;24.30;1.00
10566;DHT22;5331;48.148;16.326;2023-08-08T15:37:49;24.20;1.00
10566;DHT22;5331;48.148;16.326;2023-08-08T15:40:16;24.10;1.00
10566;DHT22;5331;48.148;16.326;2023-08-08T15:42:44;24.10;1.00
10566;DHT22;5331;48.148;16.326;2023-08-08T15:45:12;24.00;1.00
10566;DHT22;5331;48.148;16.326;2023-08-08T15:47:39;24.00;1.00
10566;DHT22;5331;48.148;16.326;2023-08-08T15:50:07;24.00;1.00